sensor_id;sensor_type;location;lat;lon;timestamp;temperature;humidity
8114;DHT22;4099;52.684;9.918;2023-03-17T00:03:24;5.20;99.90
8114;DHT22;4099;52.684;9.918;2023-03-17T00:08:30;5.20;99.90
8114;DHT22;4099;52.684;9.918;2023-03-17T00:13:32;5.20;99.90
8114;DHT22;4099;52.684;9.918;2023-03-17T00:18:35;5.20;99.90
8114;DHT22;4099;52.684;9.918;2023-03-17T00:23:39;5.10;99.90
8114;DHT22;4099;52.684;9.918;2023-03-17T00:28:41;5.20;99.90
8114;DHT22;4099;52.684;9.918;2023-03-17T00:33:44;5.20;99.90
8114;DHT22;4099;52.684;9.918;2023-03-17T00:38:49;5.20;99.90
8114;DHT22;4099;52.684;9.918;2023-03-17T00:43:52;5.20;99.90
8114;DHT22;4099;52.684;9.918;2023-03-17T00:48:55;5.20;99.90
8114;DHT22;4099;52.684;9.918;2023-03-17T00:53:58;5.10;99.90
8114;DHT22;4099;52.684;9.918;2023-03-17T00:59:01;5.00;99.90
8114;DHT22;4099;52.684;9.918;2023-03-17T01:04:03;4.90;99.90
8114;DHT22;4099;52.684;9.918;2023-03-17T01:09:06;4.80;99.90
8114;DHT22;4099;52.684;9.918;2023-03-17T01:14:09;4.70;99.90
8114;DHT22;4099;52.684;9.918;2023-03-17T01:19:12;4.50;99.90
8114;DHT22;4099;52.684;9.918;2023-03-17T01:24:15;4.40;99.90
8114;DHT22;4099;52.684;9.918;2023-03-17T01:29:17;4.40;99.90
8114;DHT22;4099;52.684;9.918;2023-03-17T01:34:22;4.40;99.90
8114;DHT22;4099;52.684;9.918;2023-03-17T01:39:25;4.50;99.90
8114;DHT22;4099;52.684;9.918;2023-03-17T01:44:27;4.60;99.90
8114;DHT22;4099;52.684;9.918;2023-03-17T01:49:31;4.60;99.90
8114;DHT22;4099;52.684;9.918;2023-03-17T01:54:40;4.60;99.90
8114;DHT22;4099;52.684;9.918;2023-03-17T01:59:46;4.70;99.90
8114;DHT22;4099;52.684;9.918;2023-03-17T02:04:50;4.80;99.90
8114;DHT22;4099;52.684;9.918;2023-03-17T02:09:54;4.80;99.90
8114;DHT22;4099;52.684;9.918;2023-03-17T02:14:57;4.70;99.90
8114;DHT22;4099;52.684;9.918;2023-03-17T02:25:30;4.60;99.90
8114;DHT22;4099;52.684;9.918;2023-03-17T02:30:34;4.70;99.90
8114;DHT22;4099;52.684;9.918;2023-03-17T02:35:37;4.70;99.90
8114;DHT22;4099;52.684;9.918;2023-03-17T02:40:41;4.80;99.90
8114;DHT22;4099;52.684;9.918;2023-03-17T02:45:43;4.90;99.90
8114;DHT22;4099;52.684;9.918;2023-03-17T02:50:45;4.80;99.90
8114;DHT22;4099;52.684;9.918;2023-03-17T02:55:48;4.80;99.90
8114;DHT22;4099;52.684;9.918;2023-03-17T03:00:50;4.80;99.90
8114;DHT22;4099;52.684;9.918;2023-03-17T03:05:52;4.80;99.90
8114;DHT22;4099;52.684;9.918;2023-03-17T03:10:55;4.80;99.90
8114;DHT22;4099;52.684;9.918;2023-03-17T03:16:02;4.70;99.90
8114;DHT22;4099;52.684;9.918;2023-03-17T03:21:04;4.70;99.90
8114;DHT22;4099;52.684;9.918;2023-03-17T03:26:08;4.60;99.90
8114;DHT22;4099;52.684;9.918;2023-03-17T03:31:10;4.60;99.90
8114;DHT22;4099;52.684;9.918;2023-03-17T03:36:13;4.70;99.90
8114;DHT22;4099;52.684;9.918;2023-03-17T03:41:16;4.70;99.90
8114;DHT22;4099;52.684;9.918;2023-03-17T03:46:18;4.70;99.90
8114;DHT22;4099;52.684;9.918;2023-03-17T03:51:20;4.60;99.90
8114;DHT22;4099;52.684;9.918;2023-03-17T03:56:23;4.50;99.90
8114;DHT22;4099;52.684;9.918;2023-03-17T04:01:25;4.40;99.90
8114;DHT22;4099;52.684;9.918;2023-03-17T04:06:26;4.30;99.90
8114;DHT22;4099;52.684;9.918;2023-03-17T04:11:30;4.10;99.90
8114;DHT22;4099;52.684;9.918;2023-03-17T04:16:31;4.00;99.90
8114;DHT22;4099;52.684;9.918;2023-03-17T04:21:33;3.90;99.90
8114;DHT22;4099;52.684;9.918;2023-03-17T04:26:38;3.80;99.90
8114;DHT22;4099;52.684;9.918;2023-03-17T04:31:40;3.80;99.90
8114;DHT22;4099;52.684;9.918;2023-03-17T04:36:43;3.60;99.90
8114;DHT22;4099;52.684;9.918;2023-03-17T04:41:46;3.50;99.90
8114;DHT22;4099;52.684;9.918;2023-03-17T04:46:47;3.50;99.90
8114;DHT22;4099;52.684;9.918;2023-03-17T04:51:49;3.20;99.90
8114;DHT22;4099;52.684;9.918;2023-03-17T04:56:52;3.10;99.90
8114;DHT22;4099;52.684;9.918;2023-03-17T05:01:54;3.00;99.90
8114;DHT22;4099;52.684;9.918;2023-03-17T05:06:56;3.00;99.90
8114;DHT22;4099;52.684;9.918;2023-03-17T05:11:59;3.10;99.90
8114;DHT22;4099;52.684;9.918;2023-03-17T05:17:00;2.90;99.90
8114;DHT22;4099;52.684;9.918;2023-03-17T05:22:02;2.70;99.90
8114;DHT22;4099;52.684;9.918;2023-03-17T05:27:05;2.60;99.90
8114;DHT22;4099;52.684;9.918;2023-03-17T05:32:07;2.80;99.90
8114;DHT22;4099;52.684;9.918;2023-03-17T05:37:09;2.80;99.90
8114;DHT22;4099;52.684;9.918;2023-03-17T05:42:12;2.80;99.90
8114;DHT22;4099;52.684;9.918;2023-03-17T05:47:14;2.70;99.90
8114;DHT22;4099;52.684;9.918;2023-03-17T05:52:16;2.70;99.90
8114;DHT22;4099;52.684;9.918;2023-03-17T05:57:19;2.70;99.90
8114;DHT22;4099;52.684;9.918;2023-03-17T06:02:20;2.80;99.90
8114;DHT22;4099;52.684;9.918;2023-03-17T06:07:22;2.70;99.90
8114;DHT22;4099;52.684;9.918;2023-03-17T06:12:25;2.70;99.90
8114;DHT22;4099;52.684;9.918;2023-03-17T06:17:27;2.70;99.90
8114;DHT22;4099;52.684;9.918;2023-03-17T06:22:29;2.80;99.90
8114;DHT22;4099;52.684;9.918;2023-03-17T06:27:32;2.80;99.90
8114;DHT22;4099;52.684;9.918;2023-03-17T06:32:34;2.90;99.90
8114;DHT22;4099;52.684;9.918;2023-03-17T06:37:36;3.00;99.90
8114;DHT22;4099;52.684;9.918;2023-03-17T06:42:39;3.00;99.90
8114;DHT22;4099;52.684;9.918;2023-03-17T06:47:41;3.10;99.90
8114;DHT22;4099;52.684;9.918;2023-03-17T06:52:43;3.40;99.90
8114;DHT22;4099;52.684;9.918;2023-03-17T06:57:48;3.60;99.90
8114;DHT22;4099;52.684;9.918;2023-03-17T07:02:50;3.90;99.90
8114;DHT22;4099;52.684;9.918;2023-03-17T07:07:52;4.10;99.90
8114;DHT22;4099;52.684;9.918;2023-03-17T07:12:55;4.30;99.90
8114;DHT22;4099;52.684;9.918;2023-03-17T07:17:57;4.60;99.90
8114;DHT22;4099;52.684;9.918;2023-03-17T07:22:59;4.90;99.90
8114;DHT22;4099;52.684;9.918;2023-03-17T07:28:02;5.10;99.90
8114;DHT22;4099;52.684;9.918;2023-03-17T07:33:04;5.40;99.90
8114;DHT22;4099;52.684;9.918;2023-03-17T07:38:06;5.70;99.90
8114;DHT22;4099;52.684;9.918;2023-03-17T07:43:09;5.90;99.90
8114;DHT22;4099;52.684;9.918;2023-03-17T07:48:11;6.20;99.90
8114;DHT22;4099;52.684;9.918;2023-03-17T07:53:13;6.50;99.90
8114;DHT22;4099;52.684;9.918;2023-03-17T07:58:16;6.80;99.90
8114;DHT22;4099;52.684;9.918;2023-03-17T08:03:17;7.30;99.90
8114;DHT22;4099;52.684;9.918;2023-03-17T08:08:19;7.90;99.90
8114;DHT22;4099;52.684;9.918;2023-03-17T08:13:23;8.40;99.90
8114;DHT22;4099;52.684;9.918;2023-03-17T08:18:25;8.80;99.50
8114;DHT22;4099;52.684;9.918;2023-03-17T08:23:27;9.20;98.60
8114;DHT22;4099;52.684;9.918;2023-03-17T08:28:30;9.50;98.10
8114;DHT22;4099;52.684;9.918;2023-03-17T08:33:32;9.80;97.20
8114;DHT22;4099;52.684;9.918;2023-03-17T08:38:35;10.10;96.30
8114;DHT22;4099;52.684;9.918;2023-03-17T08:43:39;10.30;95.80
8114;DHT22;4099;52.684;9.918;2023-03-17T08:48:42;10.50;95.10
8114;DHT22;4099;52.684;9.918;2023-03-17T08:53:44;10.90;94.40
8114;DHT22;4099;52.684;9.918;2023-03-17T08:58:48;11.70;93.90
8114;DHT22;4099;52.684;9.918;2023-03-17T09:03:51;11.90;92.50
8114;DHT22;4099;52.684;9.918;2023-03-17T09:08:54;12.30;91.90
8114;DHT22;4099;52.684;9.918;2023-03-17T09:13:57;12.50;91.40
8114;DHT22;4099;52.684;9.918;2023-03-17T09:18:59;12.50;90.80
8114;DHT22;4099;52.684;9.918;2023-03-17T09:24:01;12.60;91.00
8114;DHT22;4099;52.684;9.918;2023-03-17T09:29:04;12.80;90.90
8114;DHT22;4099;52.684;9.918;2023-03-17T09:34:06;13.10;90.90
8114;DHT22;4099;52.684;9.918;2023-03-17T09:39:09;13.30;90.00
8114;DHT22;4099;52.684;9.918;2023-03-17T09:44:18;13.60;90.50
8114;DHT22;4099;52.684;9.918;2023-03-17T09:49:28;13.80;89.70
8114;DHT22;4099;52.684;9.918;2023-03-17T09:54:37;13.90;89.90
8114;DHT22;4099;52.684;9.918;2023-03-17T09:59:41;14.10;88.50
8114;DHT22;4099;52.684;9.918;2023-03-17T10:04:44;14.30;88.70
8114;DHT22;4099;52.684;9.918;2023-03-17T10:09:55;14.70;87.10
8114;DHT22;4099;52.684;9.918;2023-03-17T10:15:03;14.70;87.30
8114;DHT22;4099;52.684;9.918;2023-03-17T10:20:10;14.90;87.40
8114;DHT22;4099;52.684;9.918;2023-03-17T10:25:15;15.10;86.70
8114;DHT22;4099;52.684;9.918;2023-03-17T10:30:21;15.30;84.60
8114;DHT22;4099;52.684;9.918;2023-03-17T10:35:23;15.40;84.40
8114;DHT22;4099;52.684;9.918;2023-03-17T10:40:26;15.50;85.10
8114;DHT22;4099;52.684;9.918;2023-03-17T10:45:32;15.90;86.40
8114;DHT22;4099;52.684;9.918;2023-03-17T10:50:36;15.90;82.30
8114;DHT22;4099;52.684;9.918;2023-03-17T10:55:41;15.70;78.70
8114;DHT22;4099;52.684;9.918;2023-03-17T11:00:53;15.60;79.50
8114;DHT22;4099;52.684;9.918;2023-03-17T11:06:00;15.80;80.10
8114;DHT22;4099;52.684;9.918;2023-03-17T11:11:06;16.20;80.90
8114;DHT22;4099;52.684;9.918;2023-03-17T11:16:18;16.60;79.20
8114;DHT22;4099;52.684;9.918;2023-03-17T11:21:25;16.50;79.10
8114;DHT22;4099;52.684;9.918;2023-03-17T11:26:39;16.70;80.80
8114;DHT22;4099;52.684;9.918;2023-03-17T11:31:53;17.00;79.70
8114;DHT22;4099;52.684;9.918;2023-03-17T11:37:01;17.30;78.90
8114;DHT22;4099;52.684;9.918;2023-03-17T11:42:12;17.50;77.50
8114;DHT22;4099;52.684;9.918;2023-03-17T11:47:26;17.80;77.20
8114;DHT22;4099;52.684;9.918;2023-03-17T11:52:35;17.60;78.10
8114;DHT22;4099;52.684;9.918;2023-03-17T11:57:43;17.60;77.70
8114;DHT22;4099;52.684;9.918;2023-03-17T12:02:52;18.00;78.30
8114;DHT22;4099;52.684;9.918;2023-03-17T12:07:57;18.20;76.10
8114;DHT22;4099;52.684;9.918;2023-03-17T12:13:04;18.50;76.30
8114;DHT22;4099;52.684;9.918;2023-03-17T12:18:14;18.60;75.50
8114;DHT22;4099;52.684;9.918;2023-03-17T12:23:27;18.50;75.00
8114;DHT22;4099;52.684;9.918;2023-03-17T12:28:34;19.00;76.90
8114;DHT22;4099;52.684;9.918;2023-03-17T12:33:43;19.30;74.80
8114;DHT22;4099;52.684;9.918;2023-03-17T12:38:51;19.20;74.20
8114;DHT22;4099;52.684;9.918;2023-03-17T12:44:04;19.20;74.60
8114;DHT22;4099;52.684;9.918;2023-03-17T12:49:32;19.50;72.90
8114;DHT22;4099;52.684;9.918;2023-03-17T12:54:37;19.50;73.80
8114;DHT22;4099;52.684;9.918;2023-03-17T12:59:41;19.70;74.20
8114;DHT22;4099;52.684;9.918;2023-03-17T13:04:51;18.60;74.30
8114;DHT22;4099;52.684;9.918;2023-03-17T13:10:12;18.30;74.60
8114;DHT22;4099;52.684;9.918;2023-03-17T13:15:26;18.30;74.90
8114;DHT22;4099;52.684;9.918;2023-03-17T13:20:38;18.40;74.60
8114;DHT22;4099;52.684;9.918;2023-03-17T13:25:48;18.50;74.60
8114;DHT22;4099;52.684;9.918;2023-03-17T13:31:08;18.30;74.50
8114;DHT22;4099;52.684;9.918;2023-03-17T13:36:44;18.10;74.70
8114;DHT22;4099;52.684;9.918;2023-03-17T13:42:08;17.80;75.90
8114;DHT22;4099;52.684;9.918;2023-03-17T13:47:24;17.90;75.20
8114;DHT22;4099;52.684;9.918;2023-03-17T13:52:30;18.30;76.10
8114;DHT22;4099;52.684;9.918;2023-03-17T13:57:37;18.50;76.20
8114;DHT22;4099;52.684;9.918;2023-03-17T14:02:39;18.90;76.20
8114;DHT22;4099;52.684;9.918;2023-03-17T14:07:47;18.50;75.20
8114;DHT22;4099;52.684;9.918;2023-03-17T14:12:56;18.50;75.60
8114;DHT22;4099;52.684;9.918;2023-03-17T14:18:02;18.70;76.30
8114;DHT22;4099;52.684;9.918;2023-03-17T14:23:09;18.90;77.20
8114;DHT22;4099;52.684;9.918;2023-03-17T14:28:14;18.80;76.40
8114;DHT22;4099;52.684;9.918;2023-03-17T14:33:21;18.60;77.60
8114;DHT22;4099;52.684;9.918;2023-03-17T14:38:29;18.70;76.60
8114;DHT22;4099;52.684;9.918;2023-03-17T14:43:32;18.80;77.60
8114;DHT22;4099;52.684;9.918;2023-03-17T14:48:35;18.50;78.00
8114;DHT22;4099;52.684;9.918;2023-03-17T14:53:41;18.40;78.60
8114;DHT22;4099;52.684;9.918;2023-03-17T14:58:45;18.10;80.00
8114;DHT22;4099;52.684;9.918;2023-03-17T15:03:54;18.10;79.80
8114;DHT22;4099;52.684;9.918;2023-03-17T15:08:58;17.90;80.10
8114;DHT22;4099;52.684;9.918;2023-03-17T15:14:05;17.80;80.90
8114;DHT22;4099;52.684;9.918;2023-03-17T15:19:18;17.70;82.10
8114;DHT22;4099;52.684;9.918;2023-03-17T15:24:27;17.50;82.70
8114;DHT22;4099;52.684;9.918;2023-03-17T15:29:29;17.70;83.70
8114;DHT22;4099;52.684;9.918;2023-03-17T15:34:31;17.90;82.30
8114;DHT22;4099;52.684;9.918;2023-03-17T15:39:34;17.80;83.20
8114;DHT22;4099;52.684;9.918;2023-03-17T15:44:36;17.60;82.20
8114;DHT22;4099;52.684;9.918;2023-03-17T15:49:37;17.30;82.30
8114;DHT22;4099;52.684;9.918;2023-03-17T15:54:41;17.00;83.00
8114;DHT22;4099;52.684;9.918;2023-03-17T15:59:43;16.80;84.50
8114;DHT22;4099;52.684;9.918;2023-03-17T16:04:45;16.60;84.50
8114;DHT22;4099;52.684;9.918;2023-03-17T16:09:48;16.50;84.80
8114;DHT22;4099;52.684;9.918;2023-03-17T16:14:50;16.40;84.50
8114;DHT22;4099;52.684;9.918;2023-03-17T16:19:52;16.20;84.40
8114;DHT22;4099;52.684;9.918;2023-03-17T16:24:55;16.10;85.00
8114;DHT22;4099;52.684;9.918;2023-03-17T16:29:57;15.90;83.90
8114;DHT22;4099;52.684;9.918;2023-03-17T16:34:58;15.80;84.00
8114;DHT22;4099;52.684;9.918;2023-03-17T16:40:01;15.70;84.30
8114;DHT22;4099;52.684;9.918;2023-03-17T16:45:08;15.60;84.90
8114;DHT22;4099;52.684;9.918;2023-03-17T16:50:14;15.40;84.70
8114;DHT22;4099;52.684;9.918;2023-03-17T16:55:21;15.20;85.00
8114;DHT22;4099;52.684;9.918;2023-03-17T17:00:26;15.10;86.40
8114;DHT22;4099;52.684;9.918;2023-03-17T17:05:30;14.90;87.50
8114;DHT22;4099;52.684;9.918;2023-03-17T17:10:34;14.70;86.50
8114;DHT22;4099;52.684;9.918;2023-03-17T17:15:37;14.50;87.10
8114;DHT22;4099;52.684;9.918;2023-03-17T17:20:39;14.30;87.50
8114;DHT22;4099;52.684;9.918;2023-03-17T17:25:43;14.10;89.50
8114;DHT22;4099;52.684;9.918;2023-03-17T17:30:44;13.80;90.00
8114;DHT22;4099;52.684;9.918;2023-03-17T17:35:47;13.50;90.40
8114;DHT22;4099;52.684;9.918;2023-03-17T17:40:52;13.50;90.40
8114;DHT22;4099;52.684;9.918;2023-03-17T17:45:54;13.40;90.40
8114;DHT22;4099;52.684;9.918;2023-03-17T17:50:56;13.30;90.90
8114;DHT22;4099;52.684;9.918;2023-03-17T17:56:00;13.30;91.10
8114;DHT22;4099;52.684;9.918;2023-03-17T18:01:01;13.10;90.90
8114;DHT22;4099;52.684;9.918;2023-03-17T18:06:05;13.10;91.20
8114;DHT22;4099;52.684;9.918;2023-03-17T18:11:08;12.90;91.60
8114;DHT22;4099;52.684;9.918;2023-03-17T18:16:12;12.70;91.70
8114;DHT22;4099;52.684;9.918;2023-03-17T18:21:15;12.70;92.20
8114;DHT22;4099;52.684;9.918;2023-03-17T18:26:18;12.80;92.00
8114;DHT22;4099;52.684;9.918;2023-03-17T18:31:23;12.50;92.10
8114;DHT22;4099;52.684;9.918;2023-03-17T18:36:26;12.60;92.50
8114;DHT22;4099;52.684;9.918;2023-03-17T18:41:30;12.40;92.40
8114;DHT22;4099;52.684;9.918;2023-03-17T18:46:33;12.10;93.40
8114;DHT22;4099;52.684;9.918;2023-03-17T18:51:35;12.00;94.10
8114;DHT22;4099;52.684;9.918;2023-03-17T18:56:38;12.00;94.10
8114;DHT22;4099;52.684;9.918;2023-03-17T19:01:40;11.90;95.60
8114;DHT22;4099;52.684;9.918;2023-03-17T19:06:42;12.20;96.10
8114;DHT22;4099;52.684;9.918;2023-03-17T19:11:45;12.00;96.10
8114;DHT22;4099;52.684;9.918;2023-03-17T19:16:46;12.20;96.70
8114;DHT22;4099;52.684;9.918;2023-03-17T19:21:48;12.20;97.70
8114;DHT22;4099;52.684;9.918;2023-03-17T19:26:51;12.20;98.90
8114;DHT22;4099;52.684;9.918;2023-03-17T19:31:53;12.10;99.10
8114;DHT22;4099;52.684;9.918;2023-03-17T19:36:55;12.00;99.10
8114;DHT22;4099;52.684;9.918;2023-03-17T19:41:58;11.80;99.20
8114;DHT22;4099;52.684;9.918;2023-03-17T19:47:00;11.80;98.70
8114;DHT22;4099;52.684;9.918;2023-03-17T19:52:05;11.80;99.00
8114;DHT22;4099;52.684;9.918;2023-03-17T19:57:08;11.60;98.10
8114;DHT22;4099;52.684;9.918;2023-03-17T20:02:11;11.60;98.60
8114;DHT22;4099;52.684;9.918;2023-03-17T20:07:14;11.50;99.00
8114;DHT22;4099;52.684;9.918;2023-03-17T20:12:17;11.70;98.10
8114;DHT22;4099;52.684;9.918;2023-03-17T20:17:18;11.40;99.90
8114;DHT22;4099;52.684;9.918;2023-03-17T20:22:20;11.50;99.10
8114;DHT22;4099;52.684;9.918;2023-03-17T20:27:23;11.40;99.30
8114;DHT22;4099;52.684;9.918;2023-03-17T20:32:25;11.20;99.90
8114;DHT22;4099;52.684;9.918;2023-03-17T20:37:27;11.10;99.90
8114;DHT22;4099;52.684;9.918;2023-03-17T20:42:30;10.90;99.90
8114;DHT22;4099;52.684;9.918;2023-03-17T20:47:31;10.70;99.90
8114;DHT22;4099;52.684;9.918;2023-03-17T20:52:34;10.90;99.90
8114;DHT22;4099;52.684;9.918;2023-03-17T20:57:37;10.90;99.90
8114;DHT22;4099;52.684;9.918;2023-03-17T21:02:40;10.90;99.90
8114;DHT22;4099;52.684;9.918;2023-03-17T21:07:42;11.00;99.90
8114;DHT22;4099;52.684;9.918;2023-03-17T21:12:45;10.70;99.90
8114;DHT22;4099;52.684;9.918;2023-03-17T21:17:47;10.60;99.90
8114;DHT22;4099;52.684;9.918;2023-03-17T21:22:49;10.50;99.90
8114;DHT22;4099;52.684;9.918;2023-03-17T21:27:52;10.50;99.90
8114;DHT22;4099;52.684;9.918;2023-03-17T21:32:54;10.50;99.90
8114;DHT22;4099;52.684;9.918;2023-03-17T21:37:56;10.10;99.90
8114;DHT22;4099;52.684;9.918;2023-03-17T21:42:59;10.00;99.90
8114;DHT22;4099;52.684;9.918;2023-03-17T21:48:01;10.40;99.90
8114;DHT22;4099;52.684;9.918;2023-03-17T21:53:03;10.40;99.90
8114;DHT22;4099;52.684;9.918;2023-03-17T21:58:06;10.40;99.90
8114;DHT22;4099;52.684;9.918;2023-03-17T22:03:08;10.30;99.90
8114;DHT22;4099;52.684;9.918;2023-03-17T22:08:10;10.30;99.90
8114;DHT22;4099;52.684;9.918;2023-03-17T22:13:13;10.20;99.90
8114;DHT22;4099;52.684;9.918;2023-03-17T22:18:14;10.20;99.90
8114;DHT22;4099;52.684;9.918;2023-03-17T22:23:17;10.00;99.90
8114;DHT22;4099;52.684;9.918;2023-03-17T22:28:21;10.00;99.90
8114;DHT22;4099;52.684;9.918;2023-03-17T22:33:23;10.00;99.90
8114;DHT22;4099;52.684;9.918;2023-03-17T22:38:25;9.90;99.90
8114;DHT22;4099;52.684;9.918;2023-03-17T22:43:28;9.70;99.90
8114;DHT22;4099;52.684;9.918;2023-03-17T22:48:30;9.50;99.90
8114;DHT22;4099;52.684;9.918;2023-03-17T22:53:36;9.40;99.90
8114;DHT22;4099;52.684;9.918;2023-03-17T22:58:39;9.30;99.90
8114;DHT22;4099;52.684;9.918;2023-03-17T23:03:42;9.10;99.90
8114;DHT22;4099;52.684;9.918;2023-03-17T23:08:44;9.00;99.90
8114;DHT22;4099;52.684;9.918;2023-03-17T23:13:47;8.90;99.90
8114;DHT22;4099;52.684;9.918;2023-03-17T23:18:49;9.00;99.90
8114;DHT22;4099;52.684;9.918;2023-03-17T23:23:52;9.40;99.90
8114;DHT22;4099;52.684;9.918;2023-03-17T23:28:55;9.40;99.90
8114;DHT22;4099;52.684;9.918;2023-03-17T23:33:57;9.50;99.90
8114;DHT22;4099;52.684;9.918;2023-03-17T23:38:58;9.40;99.90
8114;DHT22;4099;52.684;9.918;2023-03-17T23:44:01;9.50;99.90
8114;DHT22;4099;52.684;9.918;2023-03-17T23:49:05;9.40;99.90
8114;DHT22;4099;52.684;9.918;2023-03-17T23:54:07;9.50;99.90
8114;DHT22;4099;52.684;9.918;2023-03-17T23:59:11;9.40;99.90
